Time;durP1;ratioP1;P1;durP2;ratioP2;P2;SDS_P1;SDS_P2;PMS_P1;PMS_P2;Temp;Humidity;BMP_temperature;BMP_pressure;BME280_temperature;BME280_humidity;BME280_pressure;Samples;Min_cycle;Max_cycle;Signal;HPM_P1;HPM_P2
2023/08/13 00:02:22;;;;;;;;;;;;;;;;;;5056871;28;19951;-64
2023/08/13 00:04:48;;;;;;;;;;;;;;;;;;5055970;28;19921;-64
2023/08/13 00:07:14;;;;;;;;;;;;;;;;;;5054922;28;19912;-64
2023/08/13 00:09:40;;;;;;;;;;;;;;;;;;5052765;28;20354;-64
2023/08/13 00:12:06;;;;;;;;;;;;;;;;;;5057609;28;21312;-64
2023/08/13 00:14:32;;;;;;;;;;;;;;;;;;5067278;28;19996;-64
2023/08/13 00:16:58;;;;;;;;;;;;;;;;;;5071487;28;19959;-66
2023/08/13 00:19:24;;;;;;;;;;;;;;;;;;5066971;28;19970;-65
2023/08/13 00:21:50;;;;;;;;;;;;;;;;;;5070979;28;19913;-64
2023/08/13 00:24:15;;;;;;;;;;;;;;;;;;5059483;28;20054;-64
2023/08/13 00:26:42;;;;;;;;;;;;;;;;;;5061168;28;20272;-64
2023/08/13 00:29:08;;;;;;;;;;;;;;;;;;5074800;28;19916;-64
2023/08/13 00:31:33;;;;;;;;;;;;;;;;;;5067745;28;19935;-65
2023/08/13 00:33:59;;;;;;;;;;;;;;;;;;5069446;28;19912;-64
2023/08/13 00:36:25;;;;;;;;;;;;;;;;;;5064203;28;19952;-64
2023/08/13 00:38:51;;;;;;;;;;;;;;;;;;5059831;28;20283;-65
2023/08/13 00:41:17;;;;;;;;;;;;;;;;;;5071534;28;19982;-65
2023/08/13 00:43:43;;;;;;;;;;;;;;;;;;5073075;28;19913;-64
2023/08/13 00:46:09;;;;;;;;;;;;;;;;;;5075777;28;19952;-64
2023/08/13 00:48:35;;;;;;;;;;;;;;;;;;5076369;28;19909;-64
2023/08/13 00:51:01;;;;;;;;;;;;;;;;;;5075896;28;20292;-64
2023/08/13 00:53:27;;;;;;;;;;;;;;;;;;5068127;28;19955;-64
2023/08/13 00:55:53;;;;;;;;;;;;;;;;;;5055762;28;20000;-65
2023/08/13 00:58:19;;;;;;;;;;;;;;;;;;5056373;28;19958;-66
2023/08/13 01:00:46;;;;;;;;;;;;;;;;;;5055872;28;19913;-64
2023/08/13 01:03:12;;;;;;;;;;;;;;;;;;5070288;28;19920;-65
2023/08/13 01:05:38;;;;;;;;;;;;;;;;;;5074455;28;19944;-66
2023/08/13 01:08:03;;;;;;;;;;;;;;;;;;5074130;28;19999;-64
2023/08/13 01:10:29;;;;;;;;;;;;;;;;;;5072216;28;19913;-64
2023/08/13 01:12:55;;;;;;;;;;;;;;;;;;5075833;28;20402;-64
2023/08/13 01:15:21;;;;;;;;;;;;;;;;;;5075852;28;19905;-64
2023/08/13 01:17:47;;;;;;;;;;;;;;;;;;5075723;28;20026;-64
2023/08/13 01:20:14;;;;;;;;;;;;;;;;;;5074660;28;19942;-64
2023/08/13 01:22:40;;;;;;;;;;;;;;;;;;5074420;28;19908;-64
2023/08/13 01:25:05;;;;;;;;;;;;;;;;;;5062872;28;19909;-64
2023/08/13 01:27:31;;;;;;;;;;;;;;;;;;5055669;28;20000;-66
2023/08/13 01:29:57;;;;;;;;;;;;;;;;;;5071057;28;19948;-65
2023/08/13 01:32:23;;;;;;;;;;;;;;;;;;5074860;28;20010;-64
2023/08/13 01:34:49;;;;;;;;;;;;;;;;;;5073426;28;19919;-64
2023/08/13 01:37:15;;;;;;;;;;;;;;;;;;5073715;28;19988;-65
2023/08/13 01:39:41;;;;;;;;;;;;;;;;;;5071073;28;20026;-64
2023/08/13 01:42:10;;;;;;;;;;;;;;;;;;5074430;28;19913;-64
2023/08/13 01:44:35;;;;;;;;;;;;;;;;;;5073498;28;20001;-64
2023/08/13 01:47:01;;;;;;;;;;;;;;;;;;5062874;28;19947;-64
2023/08/13 01:49:27;;;;;;;;;;;;;;;;;;5093926;28;20439;-64
2023/08/13 01:51:53;;;;;;;;;;;;;;;;;;5089117;28;20002;-64
2023/08/13 01:54:19;;;;;;;;;;;;;;;;;;5074854;28;19915;-66
2023/08/13 01:56:45;;;;;;;;;;;;;;;;;;5073937;28;19917;-65
2023/08/13 01:59:11;;;;;;;;;;;;;;;;;;5074614;28;19963;-64
2023/08/13 02:01:37;;;;;;;;;;;;;;;;;;5073350;28;20774;-64
2023/08/13 02:04:03;;;;;;;;;;;;;;;;;;5074149;28;19912;-64
2023/08/13 02:06:32;;;;;;;;;;;;;;;;;;5075154;28;19915;-70
2023/08/13 02:08:58;;;;;;;;;;;;;;;;;;5074743;28;19913;-70
2023/08/13 02:11:24;;;;;;;;;;;;;;;;;;5074468;28;20360;-71
2023/08/13 02:13:50;;;;;;;;;;;;;;;;;;5074556;28;20005;-70
2023/08/13 02:16:16;;;;;;;;;;;;;;;;;;5074506;28;20007;-70
2023/08/13 02:18:42;;;;;;;;;;;;;;;;;;5062434;28;19947;-70
2023/08/13 02:21:08;;;;;;;;;;;;;;;;;;5054311;28;19917;-70
2023/08/13 02:23:34;;;;;;;;;;;;;;;;;;5054369;28;19962;-70
2023/08/13 02:26:00;;;;;;;;;;;;;;;;;;5063980;28;19936;-71
2023/08/13 02:28:26;;;;;;;;;;;;;;;;;;5072105;28;19912;-70
2023/08/13 02:30:51;;;;;;;;;;;;;;;;;;5072189;28;20357;-71
2023/08/13 02:33:17;;;;;;;;;;;;;;;;;;5073814;28;19913;-70
2023/08/13 02:35:43;;;;;;;;;;;;;;;;;;5062254;28;19959;-70
2023/08/13 02:38:09;;;;;;;;;;;;;;;;;;5073398;28;19920;-70
2023/08/13 02:40:35;;;;;;;;;;;;;;;;;;5072697;28;19909;-71
2023/08/13 02:43:01;;;;;;;;;;;;;;;;;;5072539;28;19918;-70
2023/08/13 02:45:27;;;;;;;;;;;;;;;;;;5073913;28;20014;-70
2023/08/13 02:47:53;;;;;;;;;;;;;;;;;;5073424;28;19966;-71
2023/08/13 02:50:19;;;;;;;;;;;;;;;;;;5071473;28;20339;-69
2023/08/13 02:52:45;;;;;;;;;;;;;;;;;;5072325;28;19909;-70
2023/08/13 02:55:11;;;;;;;;;;;;;;;;;;5072731;28;20019;-70
2023/08/13 02:57:37;;;;;;;;;;;;;;;;;;5071325;28;19921;-70
2023/08/13 03:00:02;;;;;;;;;;;;;;;;;;5071555;28;20265;-69
2023/08/13 03:02:28;;;;;;;;;;;;;;;;;;5068928;28;20276;-70
2023/08/13 03:04:54;;;;;;;;;;;;;;;;;;5072159;28;20000;-70
2023/08/13 03:07:20;;;;;;;;;;;;;;;;;;5073417;28;19916;-71
2023/08/13 03:09:46;;;;;;;;;;;;;;;;;;5061849;28;19947;-70
2023/08/13 03:12:12;;;;;;;;;;;;;;;;;;5053637;28;19958;-71
2023/08/13 03:14:38;;;;;;;;;;;;;;;;;;5070446;28;19908;-70
2023/08/13 03:17:04;;;;;;;;;;;;;;;;;;5073680;28;20020;-66
2023/08/13 03:19:30;;;;;;;;;;;;;;;;;;5069708;28;20135;-66
2023/08/13 03:21:56;;;;;;;;;;;;;;;;;;5069430;28;19958;-67
2023/08/13 03:24:22;;;;;;;;;;;;;;;;;;5067153;28;19909;-66
2023/08/13 03:26:48;;;;;;;;;;;;;;;;;;5061214;28;20016;-66
2023/08/13 03:29:14;;;;;;;;;;;;;;;;;;5057620;28;19999;-66
2023/08/13 03:31:40;;;;;;;;;;;;;;;;;;5072875;28;19947;-67
2023/08/13 03:34:05;;;;;;;;;;;;;;;;;;5071258;28;19912;-66
2023/08/13 03:36:31;;;;;;;;;;;;;;;;;;5072897;28;19916;-66
2023/08/13 03:38:57;;;;;;;;;;;;;;;;;;5072542;28;19912;-67
2023/08/13 03:41:23;;;;;;;;;;;;;;;;;;5071011;28;20419;-66
2023/08/13 03:43:49;;;;;;;;;;;;;;;;;;5071572;28;19915;-66
2023/08/13 03:46:15;;;;;;;;;;;;;;;;;;5072149;28;19908;-66
2023/08/13 03:48:41;;;;;;;;;;;;;;;;;;5072282;28;19919;-67
2023/08/13 03:51:07;;;;;;;;;;;;;;;;;;5070229;28;20372;-66
2023/08/13 03:53:33;;;;;;;;;;;;;;;;;;5070853;28;20007;-67
2023/08/13 03:55:59;;;;;;;;;;;;;;;;;;5062597;28;19995;-66
2023/08/13 03:58:25;;;;;;;;;;;;;;;;;;5071757;28;19908;-66
2023/08/13 04:00:51;;;;;;;;;;;;;;;;;;5060262;28;20283;-66
2023/08/13 04:03:17;;;;;;;;;;;;;;;;;;5054443;28;20007;-67
2023/08/13 04:05:42;;;;;;;;;;;;;;;;;;5071514;28;19912;-67
2023/08/13 04:08:08;;;;;;;;;;;;;;;;;;5071442;28;20375;-67
2023/08/13 04:10:34;;;;;;;;;;;;;;;;;;5071089;28;19999;-67
2023/08/13 04:13:00;;;;;;;;;;;;;;;;;;5071039;28;19916;-67
2023/08/13 04:15:26;;;;;;;;;;;;;;;;;;5071387;28;20399;-67
2023/08/13 04:17:52;;;;;;;;;;;;;;;;;;5060340;28;19913;-67
2023/08/13 04:20:18;;;;;;;;;;;;;;;;;;5070330;28;20291;-67
2023/08/13 04:22:45;;;;;;;;;;;;;;;;;;5070567;28;19924;-67
2023/08/13 04:25:11;;;;;;;;;;;;;;;;;;5071495;28;20288;-67
2023/08/13 04:27:37;;;;;;;;;;;;;;;;;;5071530;28;19912;-70
2023/08/13 04:30:03;;;;;;;;;;;;;;;;;;5065968;28;20722;-70
2023/08/13 04:32:29;;;;;;;;;;;;;;;;;;5069932;28;19962;-69
2023/08/13 04:34:55;;;;;;;;;;;;;;;;;;5068569;28;20403;-70
2023/08/13 04:37:21;;;;;;;;;;;;;;;;;;5066734;28;20020;-69
2023/08/13 04:39:47;;;;;;;;;;;;;;;;;;5069521;28;19912;-69
2023/08/13 04:42:12;;;;;;;;;;;;;;;;;;5071343;28;19915;-69
2023/08/13 04:44:38;;;;;;;;;;;;;;;;;;5070156;28;19959;-70
2023/08/13 04:47:04;;;;;;;;;;;;;;;;;;5071339;28;19915;-70
2023/08/13 04:49:30;;;;;;;;;;;;;;;;;;5068607;28;19916;-70
2023/08/13 04:51:56;;;;;;;;;;;;;;;;;;5066567;28;19920;-69
2023/08/13 04:54:22;;;;;;;;;;;;;;;;;;5067838;28;19948;-70
2023/08/13 04:56:48;;;;;;;;;;;;;;;;;;5069340;28;19967;-69
2023/08/13 04:59:14;;;;;;;;;;;;;;;;;;5069346;28;21722;-70
2023/08/13 05:01:40;;;;;;;;;;;;;;;;;;5068882;28;20007;-69
2023/08/13 05:04:05;;;;;;;;;;;;;;;;;;5062026;28;19924;-70
2023/08/13 05:06:31;;;;;;;;;;;;;;;;;;5068226;28;19912;-70
2023/08/13 05:08:57;;;;;;;;;;;;;;;;;;5066011;28;19917;-69
2023/08/13 05:11:23;;;;;;;;;;;;;;;;;;5069860;28;20291;-69
2023/08/13 05:13:49;;;;;;;;;;;;;;;;;;5063458;28;19971;-69
2023/08/13 05:16:15;;;;;;;;;;;;;;;;;;5069069;28;19912;-69
2023/08/13 05:18:41;;;;;;;;;;;;;;;;;;5065885;28;19920;-69
2023/08/13 05:21:07;;;;;;;;;;;;;;;;;;5069350;28;20345;-69
2023/08/13 05:23:33;;;;;;;;;;;;;;;;;;5059687;28;19963;-69
2023/08/13 05:25:59;;;;;;;;;;;;;;;;;;5068249;28;20583;-69
2023/08/13 05:28:25;;;;;;;;;;;;;;;;;;5069815;28;19958;-69
2023/08/13 05:30:50;;;;;;;;;;;;;;;;;;5065909;28;19923;-69
2023/08/13 05:33:16;;;;;;;;;;;;;;;;;;5073484;28;19924;-69
2023/08/13 05:35:42;;;;;;;;;;;;;;;;;;5072315;28;19935;-69
2023/08/13 05:38:08;;;;;;;;;;;;;;;;;;5073892;28;20007;-76
2023/08/13 05:40:34;;;;;;;;;;;;;;;;;;5071159;28;19912;-76
2023/08/13 05:43:00;;;;;;;;;;;;;;;;;;5069358;28;19920;-75
2023/08/13 05:45:26;;;;;;;;;;;;;;;;;;5072863;28;20372;-75
2023/08/13 05:47:52;;;;;;;;;;;;;;;;;;5074287;28;19959;-76
2023/08/13 05:50:18;;;;;;;;;;;;;;;;;;5074090;28;19931;-76
2023/08/13 05:52:44;;;;;;;;;;;;;;;;;;5074076;28;19916;-76
2023/08/13 05:55:10;;;;;;;;;;;;;;;;;;5074113;28;19958;-75
2023/08/13 05:57:36;;;;;;;;;;;;;;;;;;5073952;28;19912;-75
2023/08/13 06:00:02;;;;;;;;;;;;;;;;;;5069816;28;19951;-74
2023/08/13 06:02:28;;;;;;;;;;;;;;;;;;5072685;28;19912;-76
2023/08/13 06:04:54;;;;;;;;;;;;;;;;;;5071791;28;20065;-76
2023/08/13 06:07:20;;;;;;;;;;;;;;;;;;5074143;28;20655;-75
2023/08/13 06:09:46;;;;;;;;;;;;;;;;;;5073540;28;19948;-76
2023/08/13 06:12:12;;;;;;;;;;;;;;;;;;5073944;28;19923;-76
2023/08/13 06:14:38;;;;;;;;;;;;;;;;;;5073841;28;19908;-75
2023/08/13 06:17:04;;;;;;;;;;;;;;;;;;5072852;28;20392;-75
2023/08/13 06:19:30;;;;;;;;;;;;;;;;;;5073312;28;19966;-75
2023/08/13 06:21:56;;;;;;;;;;;;;;;;;;5073633;28;19908;-75
2023/08/13 06:24:21;;;;;;;;;;;;;;;;;;5072895;28;19917;-75
2023/08/13 06:26:48;;;;;;;;;;;;;;;;;;5073721;28;19927;-78
2023/08/13 06:29:13;;;;;;;;;;;;;;;;;;5073418;28;19909;-76
2023/08/13 06:31:39;;;;;;;;;;;;;;;;;;5071225;28;19916;-77
2023/08/13 06:34:05;;;;;;;;;;;;;;;;;;5068415;28;19913;-78
2023/08/13 06:36:31;;;;;;;;;;;;;;;;;;5073286;28;19967;-77
2023/08/13 06:38:57;;;;;;;;;;;;;;;;;;5063955;28;19951;-76
2023/08/13 06:41:23;;;;;;;;;;;;;;;;;;5070619;28;20389;-77
2023/08/13 06:43:49;;;;;;;;;;;;;;;;;;5071912;28;19931;-76
2023/08/13 06:46:15;;;;;;;;;;;;;;;;;;5073403;28;19914;-76
2023/08/13 06:48:41;;;;;;;;;;;;;;;;;;5073248;28;19964;-63
2023/08/13 06:51:11;;;;;;;;;;;;;;;;;;5069924;28;20367;-62
2023/08/13 06:53:37;;;;;;;;;;;;;;;;;;5069800;28;19916;-62
2023/08/13 06:56:03;;;;;;;;;;;;;;;;;;5067621;28;20329;-62
2023/08/13 06:58:29;;;;;;;;;;;;;;;;;;5070093;28;20021;-62
2023/08/13 07:00:55;;;;;;;;;;;;;;;;;;5066668;28;19912;-62
2023/08/13 07:03:21;;;;;;;;;;;;;;;;;;5063299;28;19916;-63
2023/08/13 07:05:47;;;;;;;;;;;;;;;;;;5072357;28;20043;-62
2023/08/13 07:08:13;;;;;;;;;;;;;;;;;;5071216;28;20353;-62
2023/08/13 07:10:39;;;;;;;;;;;;;;;;;;5070995;28;20415;-62
2023/08/13 07:13:05;;;;;;;;;;;;;;;;;;5064886;28;20309;-62
2023/08/13 07:15:31;;;;;;;;;;;;;;;;;;5073459;28;19950;-62
2023/08/13 07:17:57;;;;;;;;;;;;;;;;;;5066325;28;19967;-62
2023/08/13 07:20:23;;;;;;;;;;;;;;;;;;5071750;28;19927;-62
2023/08/13 07:22:50;;;;;;;;;;;;;;;;;;5070990;28;20353;-64
2023/08/13 07:25:16;;;;;;;;;;;;;;;;;;5068807;28;19951;-62
2023/08/13 07:27:42;;;;;;;;;;;;;;;;;;5070319;28;20015;-64
2023/08/13 07:30:08;;;;;;;;;;;;;;;;;;5071832;28;20360;-62
2023/08/13 07:32:33;;;;;;;;;;;;;;;;;;5064011;28;19951;-62
2023/08/13 07:34:59;;;;;;;;;;;;;;;;;;5067486;28;19913;-62
2023/08/13 07:37:26;;;;;;;;;;;;;;;;;;5071607;28;20275;-63
2023/08/13 07:39:52;;;;;;;;;;;;;;;;;;5064051;28;19948;-62
2023/08/13 07:42:17;;;;;;;;;;;;;;;;;;5068830;28;19948;-63
2023/08/13 07:44:43;;;;;;;;;;;;;;;;;;5071844;28;19912;-63
2023/08/13 07:47:09;;;;;;;;;;;;;;;;;;5071382;28;19908;-64
2023/08/13 07:49:35;;;;;;;;;;;;;;;;;;5070369;28;20012;-62
2023/08/13 07:52:01;;;;;;;;;;;;;;;;;;5068543;28;19916;-62
2023/08/13 07:54:28;;;;;;;;;;;;;;;;;;5063855;28;20379;-63
2023/08/13 07:56:54;;;;;;;;;;;;;;;;;;5058353;28;20402;-68
2023/08/13 07:59:20;;;;;;;;;;;;;;;;;;5070953;28;19960;-68
2023/08/13 08:01:46;;;;;;;;;;;;;;;;;;5067223;28;19912;-68
2023/08/13 08:04:12;;;;;;;;;;;;;;;;;;5063136;28;19924;-68
2023/08/13 08:06:38;;;;;;;;;;;;;;;;;;5054669;28;19916;-68
2023/08/13 08:09:05;;;;;;;;;;;;;;;;;;5061919;28;20011;-68
2023/08/13 08:11:31;;;;;;;;;;;;;;;;;;5068531;28;19924;-68
2023/08/13 08:13:57;;;;;;;;;;;;;;;;;;5066745;28;20372;-68
2023/08/13 08:16:23;;;;;;;;;;;;;;;;;;5064315;28;19916;-67
2023/08/13 08:18:49;;;;;;;;;;;;;;;;;;5064532;28;19920;-67
2023/08/13 08:21:15;;;;;;;;;;;;;;;;;;5068330;28;20321;-67
2023/08/13 08:23:41;;;;;;;;;;;;;;;;;;5070159;28;19916;-68
2023/08/13 08:26:06;;;;;;;;;;;;;;;;;;5067415;28;19916;-68
2023/08/13 08:28:32;;;;;;;;;;;;;;;;;;5065115;28;20359;-68
2023/08/13 08:30:58;;;;;;;;;;;;;;;;;;5062229;28;19912;-68
2023/08/13 08:33:24;;;;;;;;;;;;;;;;;;5063542;28;19948;-68
2023/08/13 08:35:50;;;;;;;;;;;;;;;;;;5064960;28;19931;-67
2023/08/13 08:38:16;;;;;;;;;;;;;;;;;;5069979;28;19981;-68
2023/08/13 08:40:42;;;;;;;;;;;;;;;;;;5070741;28;20354;-68
2023/08/13 08:43:08;;;;;;;;;;;;;;;;;;5063954;28;19981;-68
2023/08/13 08:45:34;;;;;;;;;;;;;;;;;;5065709;28;19917;-68
2023/08/13 08:48:00;;;;;;;;;;;;;;;;;;5071263;28;19908;-67
2023/08/13 08:50:25;;;;;;;;;;;;;;;;;;5070781;28;20003;-68
2023/08/13 08:52:51;;;;;;;;;;;;;;;;;;5066505;28;20418;-67
2023/08/13 08:55:17;;;;;;;;;;;;;;;;;;5070869;28;19916;-68
2023/08/13 08:57:43;;;;;;;;;;;;;;;;;;5067594;28;19986;-68
2023/08/13 09:00:09;;;;;;;;;;;;;;;;;;5067245;28;20011;-67
2023/08/13 09:02:38;;;;;;;;;;;;;;;;;;5070143;28;20276;-67
2023/08/13 09:05:03;;;;;;;;;;;;;;;;;;5069007;28;19916;-67
2023/08/13 09:07:30;;;;;;;;;;;;;;;;;;5072905;28;19909;-63
2023/08/13 09:09:56;;;;;;;;;;;;;;;;;;5061903;28;19916;-64
2023/08/13 09:12:22;;;;;;;;;;;;;;;;;;5066071;28;20453;-63
2023/08/13 09:14:48;;;;;;;;;;;;;;;;;;5083576;28;20061;-63
2023/08/13 09:17:14;;;;;;;;;;;;;;;;;;5072897;28;19920;-64
2023/08/13 09:19:40;;;;;;;;;;;;;;;;;;5072015;28;19920;-64
2023/08/13 09:22:07;;;;;;;;;;;;;;;;;;5072335;28;20007;-62
2023/08/13 09:24:33;;;;;;;;;;;;;;;;;;5070826;28;20410;-62
2023/08/13 09:26:58;;;;;;;;;;;;;;;;;;5064514;28;19916;-63
2023/08/13 09:29:24;;;;;;;;;;;;;;;;;;5064589;28;19987;-63
2023/08/13 09:31:50;;;;;;;;;;;;;;;;;;5072717;28;20005;-63
2023/08/13 09:34:18;;;;;;;;;;;;;;;;;;5067724;28;19989;-65
2023/08/13 09:36:44;;;;;;;;;;;;;;;;;;5073687;28;19917;-64
2023/08/13 09:39:11;;;;;;;;;;;;;;;;;;5074196;28;20280;-65
2023/08/13 09:41:37;;;;;;;;;;;;;;;;;;5072149;28;19912;-64
2023/08/13 09:44:03;;;;;;;;;;;;;;;;;;5069550;28;19951;-64
2023/08/13 09:46:29;;;;;;;;;;;;;;;;;;5072066;28;19915;-64
2023/08/13 09:48:55;;;;;;;;;;;;;;;;;;5074202;28;20384;-64
2023/08/13 09:51:21;;;;;;;;;;;;;;;;;;5070098;28;19912;-64
2023/08/13 09:53:47;;;;;;;;;;;;;;;;;;5067814;28;20001;-65
2023/08/13 09:56:13;;;;;;;;;;;;;;;;;;5069881;28;20287;-64
2023/08/13 09:58:39;;;;;;;;;;;;;;;;;;5070110;28;19915;-65
2023/08/13 10:01:05;;;;;;;;;;;;;;;;;;5072626;28;19963;-64
2023/08/13 10:03:31;;;;;;;;;;;;;;;;;;5070498;28;19997;-64
2023/08/13 10:05:57;;;;;;;;;;;;;;;;;;5069072;28;19977;-63
2023/08/13 10:08:23;;;;;;;;;;;;;;;;;;5072677;28;19948;-64
2023/08/13 10:10:49;;;;;;;;;;;;;;;;;;5067560;28;20778;-64
2023/08/13 10:13:15;;;;;;;;;;;;;;;;;;5063540;28;19917;-65
2023/08/13 10:15:41;;;;;;;;;;;;;;;;;;5066572;28;19959;-64
2023/08/13 10:18:07;;;;;;;;;;;;;;;;;;5071927;28;19955;-65
2023/08/13 10:20:33;;;;;;;;;;;;;;;;;;5065834;28;20364;-65
2023/08/13 10:23:01;;;;;;;;;;;;;;;;;;5065238;28;20016;-63
2023/08/13 10:25:27;;;;;;;;;;;;;;;;;;5065605;28;20012;-65
2023/08/13 10:27:53;;;;;;;;;;;;;;;;;;5065223;28;19920;-64
2023/08/13 10:30:19;;;;;;;;;;;;;;;;;;5072477;28;19912;-64
2023/08/13 10:32:45;;;;;;;;;;;;;;;;;;5069952;28;20360;-64
2023/08/13 10:35:11;;;;;;;;;;;;;;;;;;5070600;28;19920;-64
2023/08/13 10:37:37;;;;;;;;;;;;;;;;;;5067454;28;19997;-65
2023/08/13 10:40:03;;;;;;;;;;;;;;;;;;5071427;28;19998;-64
2023/08/13 10:42:31;;;;;;;;;;;;;;;;;;5070124;28;20015;-64
2023/08/13 10:44:57;;;;;;;;;;;;;;;;;;5066683;28;19919;-65
2023/08/13 10:47:23;;;;;;;;;;;;;;;;;;5061869;28;19916;-65
2023/08/13 10:49:49;;;;;;;;;;;;;;;;;;5071482;28;19916;-65
2023/08/13 10:52:14;;;;;;;;;;;;;;;;;;5069052;28;19912;-65
2023/08/13 10:54:41;;;;;;;;;;;;;;;;;;5065687;28;20295;-64
2023/08/13 10:57:06;;;;;;;;;;;;;;;;;;5071097;28;19917;-65
2023/08/13 10:59:32;;;;;;;;;;;;;;;;;;5064292;28;20365;-65
2023/08/13 11:01:58;;;;;;;;;;;;;;;;;;5069829;28;19919;-65
2023/08/13 11:04:24;;;;;;;;;;;;;;;;;;5069697;28;19991;-65
2023/08/13 11:06:50;;;;;;;;;;;;;;;;;;5068789;28;20391;-64
2023/08/13 11:09:16;;;;;;;;;;;;;;;;;;5055794;28;19923;-65
2023/08/13 11:11:42;;;;;;;;;;;;;;;;;;5062875;28;19935;-65
2023/08/13 11:14:08;;;;;;;;;;;;;;;;;;5068896;28;19946;-65
2023/08/13 11:16:34;;;;;;;;;;;;;;;;;;5066047;28;20007;-64
2023/08/13 11:19:00;;;;;;;;;;;;;;;;;;5071043;28;19921;-64
2023/08/13 11:21:26;;;;;;;;;;;;;;;;;;5071970;28;19927;-65
2023/08/13 11:23:52;;;;;;;;;;;;;;;;;;5068239;28;20002;-64
2023/08/13 11:26:18;;;;;;;;;;;;;;;;;;5071274;28;19961;-66
2023/08/13 11:28:44;;;;;;;;;;;;;;;;;;5065378;28;20355;-71
2023/08/13 11:31:10;;;;;;;;;;;;;;;;;;5061843;28;19948;-71
2023/08/13 11:33:35;;;;;;;;;;;;;;;;;;5066935;28;20469;-72
2023/08/13 11:36:01;;;;;;;;;;;;;;;;;;5068392;28;19965;-70
2023/08/13 11:38:27;;;;;;;;;;;;;;;;;;5070098;28;20293;-70
2023/08/13 11:40:54;;;;;;;;;;;;;;;;;;5070068;28;19948;-73
2023/08/13 11:43:20;;;;;;;;;;;;;;;;;;5069564;28;19969;-73
2023/08/13 11:45:46;;;;;;;;;;;;;;;;;;5063683;28;19912;-72
2023/08/13 11:48:12;;;;;;;;;;;;;;;;;;5070372;28;20336;-72
2023/08/13 11:50:38;;;;;;;;;;;;;;;;;;5067147;28;19967;-71
2023/08/13 11:53:03;;;;;;;;;;;;;;;;;;5063445;28;20295;-72
2023/08/13 11:55:30;;;;;;;;;;;;;;;;;;5071224;28;19955;-71
2023/08/13 11:57:56;;;;;;;;;;;;;;;;;;5063492;28;19924;-71
2023/08/13 12:00:22;;;;;;;;;;;;;;;;;;5071214;28;19923;-69
2023/08/13 12:02:47;;;;;;;;;;;;;;;;;;5070030;28;20418;-71
2023/08/13 12:05:13;;;;;;;;;;;;;;;;;;5071537;28;19951;-69
2023/08/13 12:07:39;;;;;;;;;;;;;;;;;;5067971;28;19999;-71
2023/08/13 12:10:05;;;;;;;;;;;;;;;;;;5067266;28;19919;-70
2023/08/13 12:12:31;;;;;;;;;;;;;;;;;;5065374;28;19948;-72
2023/08/13 12:14:57;;;;;;;;;;;;;;;;;;5066739;28;20052;-71
2023/08/13 12:17:23;;;;;;;;;;;;;;;;;;5067352;28;19922;-71
2023/08/13 12:19:49;;;;;;;;;;;;;;;;;;5061497;28;20001;-72
2023/08/13 12:22:15;;;;;;;;;;;;;;;;;;5072293;28;19908;-72
2023/08/13 12:24:41;;;;;;;;;;;;;;;;;;5058287;28;19970;-73
2023/08/13 12:27:06;;;;;;;;;;;;;;;;;;5070881;28;19919;-72
2023/08/13 12:29:32;;;;;;;;;;;;;;;;;;5058003;28;19916;-69
2023/08/13 12:31:58;;;;;;;;;;;;;;;;;;5067782;28;20010;-68
2023/08/13 12:34:24;;;;;;;;;;;;;;;;;;5065606;28;20195;-69
2023/08/13 12:36:50;;;;;;;;;;;;;;;;;;5064455;28;20011;-64
2023/08/13 12:39:16;;;;;;;;;;;;;;;;;;5078599;28;19955;-64
2023/08/13 12:41:42;;;;;;;;;;;;;;;;;;5062086;28;20236;-65
2023/08/13 12:44:08;;;;;;;;;;;;;;;;;;5066956;28;19923;-65
2023/08/13 12:46:34;;;;;;;;;;;;;;;;;;5062478;28;20421;-64
2023/08/13 12:49:00;;;;;;;;;;;;;;;;;;5065392;28;19971;-65
2023/08/13 12:51:26;;;;;;;;;;;;;;;;;;5068819;28;19960;-64
2023/08/13 12:53:52;;;;;;;;;;;;;;;;;;5069511;28;19915;-64
2023/08/13 12:56:18;;;;;;;;;;;;;;;;;;5064699;28;20375;-65
2023/08/13 12:58:45;;;;;;;;;;;;;;;;;;5061263;28;20069;-66
2023/08/13 13:01:10;;;;;;;;;;;;;;;;;;5058368;28;20326;-66
2023/08/13 13:03:36;;;;;;;;;;;;;;;;;;5064477;28;19912;-65
2023/08/13 13:06:02;;;;;;;;;;;;;;;;;;5076446;28;19917;-65
2023/08/13 13:08:28;;;;;;;;;;;;;;;;;;5068628;28;20360;-65
2023/08/13 13:10:54;;;;;;;;;;;;;;;;;;5067513;28;20008;-65
2023/08/13 13:13:20;;;;;;;;;;;;;;;;;;5063606;28;19947;-66
2023/08/13 13:15:46;;;;;;;;;;;;;;;;;;5067995;28;20364;-65
2023/08/13 13:18:12;;;;;;;;;;;;;;;;;;5070958;28;19967;-68
2023/08/13 13:20:38;;;;;;;;;;;;;;;;;;5063993;28;19920;-65
2023/08/13 13:23:04;;;;;;;;;;;;;;;;;;5069790;28;19961;-66
2023/08/13 13:25:30;;;;;;;;;;;;;;;;;;5060220;28;20036;-66
2023/08/13 13:28:00;;;;;;;;;;;;;;;;;;5057112;28;19927;-66
2023/08/13 13:30:28;;;;;;;;;;;;;;;;;;5067102;28;19916;-65
2023/08/13 13:32:54;;;;;;;;;;;;;;;;;;5065559;28;20359;-65
2023/08/13 13:35:20;;;;;;;;;;;;;;;;;;5064557;28;19923;-65
2023/08/13 13:37:46;;;;;;;;;;;;;;;;;;5066569;28;20004;-65
2023/08/13 13:40:12;;;;;;;;;;;;;;;;;;5064208;28;20016;-65
2023/08/13 13:42:38;;;;;;;;;;;;;;;;;;5060218;28;19913;-65
2023/08/13 13:45:04;;;;;;;;;;;;;;;;;;5067873;28;19927;-65
2023/08/13 13:47:30;;;;;;;;;;;;;;;;;;5062525;28;19948;-68
2023/08/13 13:49:56;;;;;;;;;;;;;;;;;;5057575;28;20288;-68
2023/08/13 13:52:22;;;;;;;;;;;;;;;;;;5070367;28;20007;-68
2023/08/13 13:54:50;;;;;;;;;;;;;;;;;;5067155;28;19931;-71
2023/08/13 13:57:16;;;;;;;;;;;;;;;;;;5064676;28;19993;-71
2023/08/13 13:59:42;;;;;;;;;;;;;;;;;;5073934;28;20384;-68
2023/08/13 14:02:08;;;;;;;;;;;;;;;;;;5066312;28;20015;-68
2023/08/13 14:04:34;;;;;;;;;;;;;;;;;;5069598;28;19958;-70
2023/08/13 14:07:00;;;;;;;;;;;;;;;;;;5067674;28;19917;-70
2023/08/13 14:09:26;;;;;;;;;;;;;;;;;;5070505;28;19958;-68
2023/08/13 14:11:52;;;;;;;;;;;;;;;;;;5062568;28;20046;-71
2023/08/13 14:14:17;;;;;;;;;;;;;;;;;;5062583;28;20023;-71
2023/08/13 14:16:43;;;;;;;;;;;;;;;;;;5073995;28;19908;-71
2023/08/13 14:19:09;;;;;;;;;;;;;;;;;;5073113;28;20015;-71
2023/08/13 14:21:35;;;;;;;;;;;;;;;;;;5064271;28;19920;-71
2023/08/13 14:24:01;;;;;;;;;;;;;;;;;;5071290;28;19973;-68
2023/08/13 14:26:27;;;;;;;;;;;;;;;;;;5071636;28;19908;-71
2023/08/13 14:28:53;;;;;;;;;;;;;;;;;;5070839;28;19920;-71
2023/08/13 14:31:19;;;;;;;;;;;;;;;;;;5073194;28;20251;-69
2023/08/13 14:33:45;;;;;;;;;;;;;;;;;;5071554;28;19927;-69
2023/08/13 14:36:10;;;;;;;;;;;;;;;;;;5073313;28;20007;-71
2023/08/13 14:38:36;;;;;;;;;;;;;;;;;;5065779;28;19942;-71
2023/08/13 14:41:03;;;;;;;;;;;;;;;;;;5055903;28;19948;-71
2023/08/13 14:43:30;;;;;;;;;;;;;;;;;;5083206;28;19995;-71
2023/08/13 14:45:56;;;;;;;;;;;;;;;;;;5073377;28;19909;-71
2023/08/13 14:48:22;;;;;;;;;;;;;;;;;;5066208;28;20444;-70
2023/08/13 14:50:48;;;;;;;;;;;;;;;;;;5064389;28;19971;-71
2023/08/13 14:53:14;;;;;;;;;;;;;;;;;;5063049;28;19965;-70
2023/08/13 14:55:40;;;;;;;;;;;;;;;;;;5060070;28;19955;-70
2023/08/13 14:58:06;;;;;;;;;;;;;;;;;;5073134;28;19962;-71
2023/08/13 15:00:32;;;;;;;;;;;;;;;;;;5066184;28;19969;-70
2023/08/13 15:02:58;;;;;;;;;;;;;;;;;;5071977;28;19915;-70
2023/08/13 15:05:24;;;;;;;;;;;;;;;;;;5072852;28;19912;-71
2023/08/13 15:07:49;;;;;;;;;;;;;;;;;;5064639;28;19918;-71
2023/08/13 15:10:15;;;;;;;;;;;;;;;;;;5068498;28;19913;-70
2023/08/13 15:12:41;;;;;;;;;;;;;;;;;;5065218;28;20631;-71
2023/08/13 15:15:07;;;;;;;;;;;;;;;;;;5069482;28;20034;-71
2023/08/13 15:17:33;;;;;;;;;;;;;;;;;;5072314;28;20384;-71
2023/08/13 15:19:59;;;;;;;;;;;;;;;;;;5070670;28;19924;-71
2023/08/13 15:22:25;;;;;;;;;;;;;;;;;;5071729;28;19997;-71
2023/08/13 15:24:51;;;;;;;;;;;;;;;;;;5065041;28;19916;-71
2023/08/13 15:27:17;;;;;;;;;;;;;;;;;;5069066;28;19923;-71
2023/08/13 15:29:43;;;;;;;;;;;;;;;;;;5054856;28;19944;-70
2023/08/13 15:32:08;;;;;;;;;;;;;;;;;;5064077;28;19955;-70
2023/08/13 15:34:34;;;;;;;;;;;;;;;;;;5063937;28;20356;-71
2023/08/13 15:37:00;;;;;;;;;;;;;;;;;;5071915;28;19927;-71
2023/08/13 15:39:26;;;;;;;;;;;;;;;;;;5072204;28;20301;-71
2023/08/13 15:41:52;;;;;;;;;;;;;;;;;;5069252;28;20003;-70
2023/08/13 15:44:18;;;;;;;;;;;;;;;;;;5062828;28;19923;-71
2023/08/13 15:46:44;;;;;;;;;;;;;;;;;;5062877;28;19947;-71
2023/08/13 15:49:10;;;;;;;;;;;;;;;;;;5072212;28;19940;-71
2023/08/13 15:51:36;;;;;;;;;;;;;;;;;;5070262;28;20710;-71
2023/08/13 15:54:02;;;;;;;;;;;;;;;;;;5058158;28;19959;-70
2023/08/13 15:56:27;;;;;;;;;;;;;;;;;;5061662;28;19912;-70
2023/08/13 15:58:53;;;;;;;;;;;;;;;;;;5063814;28;20016;-70
2023/08/13 16:01:19;;;;;;;;;;;;;;;;;;5058279;28;20376;-70
2023/08/13 16:03:45;;;;;;;;;;;;;;;;;;5059529;28;20009;-71
2023/08/13 16:06:11;;;;;;;;;;;;;;;;;;5062569;28;19912;-71
2023/08/13 16:08:37;;;;;;;;;;;;;;;;;;5064244;28;19947;-71
2023/08/13 16:11:03;;;;;;;;;;;;;;;;;;5070243;28;19995;-71
2023/08/13 16:13:29;;;;;;;;;;;;;;;;;;5063614;28;20348;-71
2023/08/13 16:15:55;;;;;;;;;;;;;;;;;;5068114;28;19918;-70
2023/08/13 16:18:21;;;;;;;;;;;;;;;;;;5061323;28;19970;-70
2023/08/13 16:20:47;;;;;;;;;;;;;;;;;;5071161;28;19956;-71
2023/08/13 16:23:13;;;;;;;;;;;;;;;;;;5071724;28;19909;-71
2023/08/13 16:25:38;;;;;;;;;;;;;;;;;;5070583;28;19970;-71
2023/08/13 16:28:04;;;;;;;;;;;;;;;;;;5070145;28;20014;-69
2023/08/13 16:30:30;;;;;;;;;;;;;;;;;;5065885;28;19965;-71
2023/08/13 16:32:56;;;;;;;;;;;;;;;;;;5071396;28;19913;-70
2023/08/13 16:35:22;;;;;;;;;;;;;;;;;;5059272;28;19928;-70
2023/08/13 16:37:48;;;;;;;;;;;;;;;;;;5071451;28;19940;-71